Time;durP1;ratioP1;P1;durP2;ratioP2;P2;SDS_P1;SDS_P2;PMS_P1;PMS_P2;Temp;Humidity;BMP_temperature;BMP_pressure;BME280_temperature;BME280_humidity;BME280_pressure;Samples;Min_cycle;Max_cycle;Signal;HPM_P1;HPM_P2
2021/08/25 00:00:43;;;;;;;14.43;5.33;;;;;;;11.82;63.71;101615.12;1721930;81;25791;-68
2021/08/25 00:03:10;;;;;;;11.75;4.78;;;;;;;11.81;63.82;101611.16;1724095;81;25743;-69
2021/08/25 00:05:36;;;;;;;10.50;4.47;;;;;;;11.77;63.89;101610.38;1691625;82;26903;-70
2021/08/25 00:08:04;;;;;;;9.90;5.28;;;;;;;11.75;63.87;101616.23;1717324;80;26018;-70
2021/08/25 00:10:30;;;;;;;11.63;5.20;;;;;;;11.69;64.03;101606.56;1725104;80;25667;-69
2021/08/25 00:13:00;;;;;;;16.67;4.90;;;;;;;11.67;64.09;101608.42;1712949;81;26280;-69
2021/08/25 00:15:26;;;;;;;12.53;5.27;;;;;;;11.62;64.13;101602.78;1728559;81;25858;-71
2021/08/25 00:17:52;;;;;;;10.88;5.00;;;;;;;11.59;64.27;101602.88;1683972;83;27401;-70
2021/08/25 00:20:20;;;;;;;8.90;4.55;;;;;;;11.57;64.34;101603.39;1675327;83;25709;-70
2021/08/25 00:22:47;;;;;;;15.43;4.95;;;;;;;11.53;64.41;101602.61;1689486;82;25764;-71
2021/08/25 00:25:14;;;;;;;13.20;5.37;;;;;;;11.50;64.49;101600.49;1711657;82;25814;-71
2021/08/25 00:27:40;;;;;;;19.32;6.35;;;;;;;11.48;64.59;101603.69;1725370;81;25752;-69
2021/08/25 00:30:08;;;;;;;14.53;5.47;;;;;;;11.45;64.67;101597.95;1747316;80;27417;-70
2021/08/25 00:32:34;;;;;;;11.33;4.78;;;;;;;11.42;64.73;101594.48;1748669;80;26392;-71
2021/08/25 00:35:00;;;;;;;12.90;5.05;;;;;;;11.39;64.81;101593.66;1737971;80;25723;-69
2021/08/25 00:37:26;;;;;;;12.25;5.50;;;;;;;11.36;64.83;101591.06;1723671;80;25998;-69
2021/08/25 00:39:51;;;;;;;11.20;4.80;;;;;;;11.32;64.96;101589.41;1759497;80;25645;-69
2021/08/25 00:42:21;;;;;;;10.03;4.67;;;;;;;11.29;65.01;101581.91;1744297;80;27390;-69
2021/08/25 00:44:47;;;;;;;12.63;4.87;;;;;;;11.27;65.13;101577.94;1757845;80;25842;-69
2021/08/25 00:47:17;;;;;;;9.25;4.50;;;;;;;11.24;65.20;101574.01;1744949;80;26529;-69
2021/08/25 00:49:45;;;;;;;;;;;;;;;11.22;65.28;101570.49;1742834;80;25805;-69
2021/08/25 00:52:11;;;;;;;11.93;4.87;;;;;;;11.22;65.49;101577.66;1730114;80;25731;-69
2021/08/25 00:54:37;;;;;;;10.88;4.92;;;;;;;11.19;65.38;101577.76;1700572;83;27448;-69
2021/08/25 00:57:05;;;;;;;15.53;4.78;;;;;;;11.19;65.45;101573.27;1697332;83;26066;-69
2021/08/25 00:59:33;;;;;;;12.73;4.50;;;;;;;11.18;65.54;101575.54;1687359;83;25852;-68
2021/08/25 01:02:10;;;;;;;9.60;4.53;;;;;;;11.16;65.60;101576.05;1697910;83;25896;-69
2021/08/25 01:04:49;;;;;;;7.25;4.30;;;;;;;11.15;65.64;101572.07;1723161;81;26397;-70
2021/08/25 01:07:20;;;;;;;12.33;4.35;;;;;;;11.14;65.66;101577.02;1684675;83;27539;-69
2021/08/25 01:09:48;;;;;;;11.28;5.45;;;;;;;11.14;65.80;101575.68;1695219;83;25734;-69
2021/08/25 01:12:18;;;;;;;8.88;4.35;;;;;;;11.13;65.86;101568.09;1688451;83;26497;-69
2021/08/25 01:14:44;;;;;;;12.05;4.37;;;;;;;11.13;65.90;101564.07;1688011;83;26345;-69
2021/08/25 01:17:13;;;;;;;9.33;4.58;;;;;;;11.11;65.92;101567.27;1687647;83;25818;-69
2021/08/25 01:20:05;;;;;;;11.78;3.95;;;;;;;11.13;66.01;101565.87;1685911;83;28662;-69
2021/08/25 01:22:31;;;;;;;14.10;4.95;;;;;;;11.11;66.02;101556.53;1705897;83;25849;-69
2021/08/25 01:25:00;;;;;;;15.63;4.45;;;;;;;11.09;66.15;101552.14;1697732;83;25748;-69
2021/08/25 01:27:29;;;;;;;13.60;4.65;;;;;;;11.08;66.25;101546.36;1693331;83;25823;-69
2021/08/25 01:29:58;;;;;;;10.23;4.40;;;;;;;11.07;66.30;101554.87;1705413;82;25736;-69
2021/08/25 01:32:27;;;;;;;9.50;3.87;;;;;;;11.05;66.36;101552.23;1759721;80;28062;-69
2021/08/25 01:34:57;;;;;;;12.73;4.42;;;;;;;11.02;66.44;101549.64;1750199;80;25756;-69
2021/08/25 01:37:26;;;;;;;27.03;5.97;;;;;;;10.97;66.39;101549.37;1744417;80;26476;-69
2021/08/25 01:39:53;;;;;;;12.33;5.25;;;;;;;10.93;66.54;101553.95;1743239;80;25688;-69
2021/08/25 01:42:20;;;;;;;16.15;5.47;;;;;;;10.89;66.63;101554.09;1745138;80;25812;-69
2021/08/25 01:44:48;;;;;;;13.40;5.33;;;;;;;10.84;66.69;101540.81;1704560;82;28539;-69
2021/08/25 01:47:18;;;;;;;14.53;4.28;;;;;;;10.81;66.73;101538.69;1743035;80;25855;-69
2021/08/25 01:49:46;;;;;;;11.25;5.05;;;;;;;10.77;66.84;101538.36;1741054;80;25240;-69
2021/08/25 01:52:13;;;;;;;11.88;5.28;;;;;;;10.76;66.95;101534.80;1746793;80;25782;-69
2021/08/25 01:54:42;;;;;;;13.30;5.25;;;;;;;10.74;67.06;101527.27;1729164;80;25833;-68
2021/08/25 01:57:09;;;;;;;15.63;5.22;;;;;;;10.73;67.11;101529.53;1752962;80;28636;-69
2021/08/25 01:59:37;;;;;;;12.88;4.67;;;;;;;10.70;67.20;101529.63;1738550;80;26275;-69
2021/08/25 02:02:06;;;;;;;11.90;5.12;;;;;;;10.69;67.32;101532.77;1738981;80;25796;-69
2021/08/25 02:04:35;;;;;;;10.98;5.67;;;;;;;10.65;67.35;101524.86;1750574;80;26274;-69
2021/08/25 02:07:02;;;;;;;14.03;5.60;;;;;;;10.62;67.45;101523.15;1759229;80;25765;-69
2021/08/25 02:09:28;;;;;;;15.68;4.83;;;;;;;10.59;67.50;101524.58;1755679;80;27372;-68
2021/08/25 02:11:54;;;;;;;10.70;5.03;;;;;;;10.56;67.60;101524.67;1732187;80;26758;-69
2021/08/25 02:14:22;;;;;;;13.10;5.85;;;;;;;10.54;67.64;101517.13;1748706;80;25880;-69
2021/08/25 02:16:48;;;;;;;12.80;4.78;;;;;;;10.52;67.71;101510.94;1746729;80;26402;-69
2021/08/25 02:19:16;;;;;;;13.38;5.58;;;;;;;10.50;67.79;101510.10;1735216;80;25792;-69
2021/08/25 02:21:42;;;;;;;12.37;5.53;;;;;;;10.48;67.87;101509.73;1723880;81;27550;-69
2021/08/25 02:24:08;;;;;;;12.05;5.75;;;;;;;10.46;67.96;101512.45;1751910;80;25701;-69
2021/08/25 02:26:35;;;;;;;14.03;6.60;;;;;;;10.43;68.04;101507.19;1736059;81;25963;-69
2021/08/25 02:29:02;;;;;;;19.95;6.30;;;;;;;10.41;68.08;101508.56;1732435;80;25870;-69
2021/08/25 02:31:28;;;;;;;15.43;6.78;;;;;;;10.39;68.13;101506.89;1755661;80;25819;-69
2021/08/25 02:33:55;;;;;;;19.25;6.58;;;;;;;10.37;68.19;101504.72;1748577;80;27363;-69
2021/08/25 02:36:23;;;;;;;15.45;6.17;;;;;;;10.33;68.28;101500.36;1745453;80;25879;-69
2021/08/25 02:38:51;;;;;;;15.78;6.15;;;;;;;10.30;68.29;101495.97;1737653;81;26478;-68
2021/08/25 02:41:22;;;;;;;15.98;6.55;;;;;;;10.30;68.43;101496.44;1741976;80;25875;-69
2021/08/25 02:43:51;;;;;;;17.42;6.10;;;;;;;10.27;68.56;101492.50;1738572;80;25837;-67
2021/08/25 02:46:19;;;;;;;16.93;6.28;;;;;;;10.24;68.57;101493.92;1750975;80;27472;-68
2021/08/25 02:48:47;;;;;;;14.58;6.83;;;;;;;10.23;68.66;101493.52;1760876;80;26163;-69
2021/08/25 02:51:12;;;;;;;17.25;6.37;;;;;;;10.22;68.75;101491.75;1735432;80;25796;-68
2021/08/25 02:53:38;;;;;;;15.93;6.75;;;;;;;10.21;68.84;101486.86;1759927;80;26303;-68
2021/08/25 02:56:07;;;;;;;14.98;6.50;;;;;;;10.21;68.89;101481.95;1749683;80;25918;-69
2021/08/25 02:58:36;;;;;;;14.00;6.05;;;;;;;10.18;68.95;101477.53;1705525;82;27412;-68
2021/08/25 03:01:02;;;;;;;15.28;6.33;;;;;;;10.17;69.04;101472.22;1741073;80;25776;-68
2021/08/25 03:03:27;;;;;;;15.93;6.28;;;;;;;10.14;69.05;101469.62;1697077;82;25703;-68
2021/08/25 03:05:53;;;;;;;15.58;7.47;;;;;;;10.12;69.09;101466.11;1690062;82;25824;-68
2021/08/25 03:08:20;;;;;;;17.45;7.08;;;;;;;10.06;69.09;101464.02;1662376;84;26445;-69
2021/08/25 03:10:46;;;;;;;15.63;6.60;;;;;;;10.04;69.25;101459.17;1749455;80;27419;-69
2021/08/25 03:13:13;;;;;;;22.62;7.60;;;;;;;10.05;69.27;101461.39;1761632;80;25685;-68
2021/08/25 03:15:39;;;;;;;17.30;6.35;;;;;;;10.04;69.39;101467.20;1743781;80;25765;-68
2021/08/25 03:18:06;;;;;;;15.83;6.28;;;;;;;10.03;69.42;101461.43;1712744;82;26478;-71
2021/08/25 03:20:34;;;;;;;18.90;7.03;;;;;;;10.01;69.45;101462.39;1740642;80;25713;-68
2021/08/25 03:23:02;;;;;;;16.05;6.12;;;;;;;9.98;69.55;101452.64;1740185;80;27559;-68
2021/08/25 03:25:28;;;;;;;19.50;6.40;;;;;;;9.97;69.64;101450.89;1743171;80;25724;-68
2021/08/25 03:27:56;;;;;;;16.77;6.85;;;;;;;9.95;69.70;101450.52;1753733;80;25722;-68
2021/08/25 03:30:23;;;;;;;18.73;7.00;;;;;;;9.92;69.76;101448.80;1746133;79;26502;-68
2021/08/25 03:32:49;;;;;;;16.15;7.65;;;;;;;9.88;69.80;101444.45;1770583;80;26467;-68
2021/08/25 03:35:16;;;;;;;17.32;6.50;;;;;;;9.84;69.77;101448.13;1750646;80;27414;-68
2021/08/25 03:37:42;;;;;;;18.45;8.13;;;;;;;9.78;69.88;101446.96;1714602;81;26206;-68
2021/08/25 03:40:12;;;;;;;16.67;6.83;;;;;;;9.77;69.95;101443.87;1764584;80;25263;-68
2021/08/25 03:42:37;;;;;;;20.05;7.25;;;;;;;9.75;70.06;101445.70;1736464;80;25903;-68
2021/08/25 03:45:07;;;;;;;19.92;8.45;;;;;;;9.73;70.11;101440.85;1765265;80;25833;-68
2021/08/25 03:47:36;;;;;;;22.98;6.67;;;;;;;9.71;70.19;101439.56;1757424;80;27377;-68
2021/08/25 03:50:02;;;;;;;27.15;7.92;;;;;;;9.70;70.24;101436.92;1763501;80;25711;-68
2021/08/25 03:52:28;;;;;;;15.03;7.00;;;;;;;9.68;70.24;101430.73;1756267;80;25706;-68
2021/08/25 03:54:54;;;;;;;23.20;6.47;;;;;;;9.66;70.35;101432.57;1747932;80;25782;-68
2021/08/25 03:57:22;;;;;;;17.65;7.05;;;;;;;9.66;70.42;101429.89;1732420;80;26341;-68
2021/08/25 03:59:48;;;;;;;17.15;7.22;;;;;;;9.65;70.45;101428.14;1695164;82;27449;-68
2021/08/25 04:02:17;;;;;;;20.35;7.42;;;;;;;9.63;70.51;101425.96;1744603;80;25724;-69
2021/08/25 04:04:45;;;;;;;20.32;8.18;;;;;;;9.64;70.54;101426.37;1759011;80;26031;-68
2021/08/25 04:07:12;;;;;;;26.30;8.30;;;;;;;9.62;70.62;101426.87;1739444;81;25797;-68
2021/08/25 04:09:39;;;;;;;22.35;7.83;;;;;;;9.60;70.66;101422.03;1701165;82;25771;-68
2021/08/25 04:12:07;;;;;;;19.50;8.13;;;;;;;9.58;70.72;101424.75;1698866;83;25787;-68
2021/08/25 04:14:34;;;;;;;15.38;7.03;;;;;;;9.57;70.77;101419.44;1695347;83;25864;-68
2021/08/25 04:17:00;;;;;;;21.00;7.80;;;;;;;9.57;70.81;101423.45;1701642;82;26561;-68
2021/08/25 04:19:26;;;;;;;21.70;6.65;;;;;;;9.55;70.85;101419.94;1742462;80;26347;-68
2021/08/25 04:21:52;;;;;;;18.05;7.05;;;;;;;9.56;70.92;101431.94;1723620;81;25712;-68
2021/08/25 04:24:18;;;;;;;18.73;6.30;;;;;;;9.53;70.83;101429.34;1771519;80;27469;-68
2021/08/25 04:26:45;;;;;;;25.72;6.55;;;;;;;9.49;70.93;101429.46;1765474;79;26364;-69
2021/08/25 04:29:11;;;;;;;22.40;6.87;;;;;;;9.46;70.91;101418.38;1763052;80;25942;-68
2021/08/25 04:31:37;;;;;;;21.45;6.80;;;;;;;9.47;71.01;101420.59;1751098;79;26463;-69
2021/08/25 04:34:03;;;;;;;18.60;6.58;;;;;;;9.48;71.14;101420.56;1736229;80;25760;-68
2021/08/25 04:36:29;;;;;;;14.43;6.50;;;;;;;9.52;71.22;101422.70;1726135;80;27391;-69
2021/08/25 04:38:58;;;;;;;13.50;6.40;;;;;;;9.55;71.28;101415.92;1690431;83;26473;-68
2021/08/25 04:41:24;;;;;;;20.45;7.15;;;;;;;9.57;71.37;101414.08;1698474;83;25840;-68
2021/08/25 04:43:52;;;;;;;25.92;7.17;;;;;;;9.60;71.42;101416.67;1696954;83;26356;-69
2021/08/25 04:46:20;;;;;;;20.92;6.75;;;;;;;9.63;71.46;101409.44;1748179;80;25776;-68
2021/08/25 04:48:46;;;;;;;16.52;6.55;;;;;;;9.68;71.49;101405.30;1756441;79;27373;-68
2021/08/25 04:51:15;;;;;;;18.57;6.40;;;;;;;9.71;71.52;101411.91;1750394;80;25920;-68
2021/08/25 04:53:44;;;;;;;20.65;6.95;;;;;;;9.73;71.43;101408.73;1760915;80;26437;-69
2021/08/25 04:56:11;;;;;;;15.72;6.42;;;;;;;9.76;71.46;101402.83;1751068;79;25891;-68
2021/08/25 04:58:39;;;;;;;16.87;6.67;;;;;;;9.80;71.49;101406.30;1756058;80;25810;-69
2021/08/25 05:01:09;;;;;;;15.75;6.75;;;;;;;9.84;71.63;101405.29;1764436;79;28223;-68
2021/08/25 05:03:37;;;;;;;20.00;6.83;;;;;;;9.88;71.66;101397.59;1765631;79;25785;-68
2021/08/25 05:06:10;;;;;;;22.05;6.75;;;;;;;9.94;71.72;101397.41;1745513;80;25743;-68
2021/08/25 05:08:38;;;;;;;27.95;6.90;;;;;;;9.98;71.76;101400.42;1759062;79;26684;-69
2021/08/25 05:11:10;;;;;;;23.92;8.35;;;;;;;10.02;71.78;101391.38;1745888;78;25780;-68
2021/08/25 05:13:38;;;;;;;14.95;6.83;;;;;;;10.07;71.79;101390.78;1749527;80;25864;-67
2021/08/25 05:16:13;;;;;;;25.52;8.25;;;;;;;10.13;71.84;101384.83;1758743;80;25759;-67
2021/08/25 05:18:42;;;;;;;16.62;7.25;;;;;;;10.22;71.88;101388.14;1752557;80;25755;-67
2021/08/25 05:21:09;;;;;;;19.55;8.08;;;;;;;10.29;71.85;101390.17;1719225;81;26440;-68
2021/08/25 05:23:40;;;;;;;19.92;8.08;;;;;;;10.34;71.83;101390.91;1736598;80;26444;-68
2021/08/25 05:26:07;;;;;;;18.65;7.30;;;;;;;10.39;71.85;101388.97;1760417;80;26462;-67
2021/08/25 05:28:34;;;;;;;27.58;7.33;;;;;;;10.43;71.80;101379.87;1719749;81;25759;-67
2021/08/25 05:31:01;;;;;;;22.50;7.22;;;;;;;10.49;71.80;101376.13;1727937;81;25856;-67
2021/08/25 05:33:29;;;;;;;17.70;6.87;;;;;;;10.53;71.81;101374.64;1689384;82;26427;-66
2021/08/25 05:35:55;;;;;;;24.25;7.67;;;;;;;10.58;71.83;101373.16;1716481;81;25719;-67
2021/08/25 05:38:22;;;;;;;20.35;7.65;;;;;;;10.64;71.82;101371.16;1745445;81;27383;-67
2021/08/25 05:40:48;;;;;;;21.20;7.50;;;;;;;10.70;71.84;101369.63;1718801;81;25758;-66
2021/08/25 05:43:17;;;;;;;18.20;6.47;;;;;;;10.75;71.84;101370.81;1719723;81;25886;-67
2021/08/25 05:45:42;;;;;;;16.35;6.30;;;;;;;10.82;71.82;101366.13;1737240;81;26007;-67
2021/08/25 05:48:08;;;;;;;17.90;6.62;;;;;;;10.86;71.81;101359.27;1730758;81;25781;-66
2021/08/25 05:50:33;;;;;;;13.95;6.70;;;;;;;10.93;71.79;101359.95;1716022;81;27369;-67
2021/08/25 05:52:59;;;;;;;25.30;7.03;;;;;;;10.98;71.78;101360.20;1691594;83;25818;-67
2021/08/25 05:55:25;;;;;;;24.20;6.60;;;;;;;11.04;71.78;101357.78;1731479;81;26540;-67
2021/08/25 05:57:53;;;;;;;20.12;6.75;;;;;;;11.09;71.78;101362.53;1699221;82;25795;-67
2021/08/25 06:00:23;;;;;;;14.47;6.60;;;;;;;11.15;71.77;101356.08;1704623;82;25749;-67
2021/08/25 06:02:50;;;;;;;16.30;6.20;;;;;;;11.22;71.73;101356.27;1715988;82;27442;-66
2021/08/25 06:05:17;;;;;;;20.72;6.55;;;;;;;11.28;71.72;101353.38;1709944;82;26163;-66
2021/08/25 06:07:42;;;;;;;18.00;7.03;;;;;;;11.34;71.67;101356.73;1716460;82;25748;-66
2021/08/25 06:10:10;;;;;;;14.25;6.05;;;;;;;11.39;71.65;101352.07;1708174;82;26446;-67
2021/08/25 06:12:36;;;;;;;16.45;6.55;;;;;;;11.46;71.63;101352.73;1710238;82;26360;-67
2021/08/25 06:15:05;;;;;;;23.90;6.80;;;;;;;11.53;71.65;101356.95;1711475;82;28212;-67
2021/08/25 06:17:33;;;;;;;16.82;6.22;;;;;;;11.61;71.58;101349.95;1713658;82;26449;-66
2021/08/25 06:20:01;;;;;;;17.27;6.35;;;;;;;11.67;71.59;101342.55;1719868;82;26418;-67
2021/08/25 06:22:28;;;;;;;12.37;5.58;;;;;;;11.74;71.53;101342.33;1719393;82;25790;-66
2021/08/25 06:24:54;;;;;;;13.85;5.08;;;;;;;11.80;71.52;101340.33;1707422;82;25323;-67
2021/08/25 06:27:20;;;;;;;16.67;6.08;;;;;;;11.88;71.52;101336.89;1704222;82;28067;-67
2021/08/25 06:29:45;;;;;;;15.95;5.50;;;;;;;11.94;71.46;101331.28;1721312;80;26520;-68
2021/08/25 06:32:12;;;;;;;20.10;6.95;;;;;;;12.02;71.47;101335.02;1743396;80;26399;-67
2021/08/25 06:34:40;;;;;;;15.03;5.78;;;;;;;12.12;71.44;101331.05;1742135;80;26758;-67
2021/08/25 06:37:07;;;;;;;15.85;5.50;;;;;;;12.19;71.34;101324.96;1744992;80;25968;-75
2021/08/25 06:39:34;;;;;;;16.27;5.97;;;;;;;12.26;71.34;101325.13;1743411;80;27371;-69
2021/08/25 06:42:01;;;;;;;14.80;6.17;;;;;;;12.34;71.26;101325.70;1736809;80;25936;-67
2021/08/25 06:44:29;;;;;;;17.05;5.67;;;;;;;12.41;71.22;101325.86;1746009;79;26332;-69
2021/08/25 06:49:51;;;;;;;17.87;4.50;;;;;;;12.56;71.18;101318.99;1785326;77;57335;-70
2021/08/25 06:52:17;;;;;;;10.55;4.42;;;;;;;12.65;71.09;101310.55;1771366;78;27487;-70
2021/08/25 06:54:43;;;;;;;9.78;4.42;;;;;;;12.74;71.04;101307.95;1777277;78;25796;-68
2021/08/25 06:57:27;;;;;;;11.50;4.22;;;;;;;12.82;70.94;101297.27;1781241;78;26239;-68
2021/08/25 06:59:53;;;;;;;11.25;4.67;;;;;;;12.88;70.84;101306.43;1762224;78;25757;-69
2021/08/25 07:02:19;;;;;;;8.23;4.00;;;;;;;12.96;70.77;101300.72;1785365;79;26070;-70
2021/08/25 07:04:45;;;;;;;11.60;4.87;;;;;;;13.02;70.68;101300.42;1809705;77;28195;-69
2021/08/25 07:07:13;;;;;;;12.58;4.62;;;;;;;13.13;70.57;101297.27;1796023;78;26425;-70
2021/08/25 07:09:40;;;;;;;10.45;4.22;;;;;;;13.18;70.40;101295.28;1802633;78;25786;-69
2021/08/25 07:12:07;;;;;;;12.58;4.80;;;;;;;13.23;70.28;101289.23;1795944;78;25835;-69
2021/08/25 07:14:34;;;;;;;14.15;5.08;;;;;;;13.30;70.24;101283.51;1787056;78;25782;-69
2021/08/25 07:17:00;;;;;;;13.98;4.37;;;;;;;13.40;70.13;101288.01;1779346;77;29536;-68
2021/08/25 07:19:26;;;;;;;11.28;4.40;;;;;;;13.50;70.01;101288.47;1784792;78;26199;-69
2021/08/25 07:21:52;;;;;;;10.10;3.95;;;;;;;13.54;69.75;101288.27;1796811;78;26409;-70
2021/08/25 07:24:17;;;;;;;13.95;4.25;;;;;;;13.57;69.69;101289.95;1803094;77;25831;-70
2021/08/25 07:26:43;;;;;;;14.85;3.95;;;;;;;13.63;69.52;101281.58;1794574;77;25942;-71
2021/08/25 07:29:09;;;;;;;13.93;3.87;;;;;;;13.70;69.39;101275.44;1774923;78;27802;-69
2021/08/25 07:31:35;;;;;;;11.15;4.78;;;;;;;13.78;69.28;101267.87;1793402;78;25739;-72
2021/08/25 07:34:01;;;;;;;12.05;4.62;;;;;;;13.83;69.03;101263.15;1783399;78;25748;-71
2021/08/25 07:36:27;;;;;;;12.15;4.25;;;;;;;13.89;68.95;101269.59;1804558;77;25713;-70
2021/08/25 07:38:53;;;;;;;13.58;3.85;;;;;;;13.93;68.60;101263.98;1796560;78;25841;-70
2021/08/25 07:41:19;;;;;;;10.00;3.65;;;;;;;14.00;68.49;101254.27;1811928;77;27382;-70
2021/08/25 07:44:05;;;;;;;12.55;4.25;;;;;;;14.04;68.30;101258.56;1799242;77;25937;-70
2021/08/25 07:46:50;;;;;;;7.35;3.42;;;;;;;14.11;68.05;101258.19;1780009;77;25765;-70
2021/08/25 07:49:16;;;;;;;11.78;4.17;;;;;;;14.16;67.77;101258.84;1796364;77;26145;-70
2021/08/25 07:51:42;;;;;;;11.57;3.72;;;;;;;14.20;67.47;101260.92;1804781;77;25697;-69
2021/08/25 07:54:08;;;;;;;13.25;4.53;;;;;;;14.21;66.84;101251.88;1805578;77;27736;-70
2021/08/25 07:56:33;;;;;;;13.95;3.72;;;;;;;14.29;66.99;101242.95;1775291;79;26332;-70
2021/08/25 07:58:59;;;;;;;10.48;3.98;;;;;;;14.38;66.70;101244.31;1794836;77;26505;-71
2021/08/25 08:01:25;;;;;;;10.13;4.35;;;;;;;14.46;66.58;101244.84;1792270;77;25787;-70
2021/08/25 08:03:51;;;;;;;13.70;3.92;;;;;;;14.56;66.05;101245.65;1800865;78;25909;-70
2021/08/25 08:06:20;;;;;;;4.92;3.33;;;;;;;14.61;65.99;101237.33;1796799;78;27401;-70
2021/08/25 08:08:47;;;;;;;6.85;3.62;;;;;;;14.66;65.80;101239.80;1805622;78;26666;-70
2021/08/25 08:11:14;;;;;;;11.90;4.22;;;;;;;14.66;65.51;101235.75;1796726;78;25888;-71
2021/08/25 08:13:58;;;;;;;16.42;3.67;;;;;;;14.69;65.09;101250.42;1789222;77;25732;-72
2021/08/25 08:16:44;;;;;;;10.72;3.75;;;;;;;14.73;64.92;101229.09;1766714;77;26116;-70
2021/08/25 08:19:19;;;;;;;9.58;3.55;;;;;;;14.74;64.62;101229.00;1789747;78;28098;-72
2021/08/25 08:21:46;;;;;;;7.55;3.42;;;;;;;14.76;64.25;101216.30;1771053;78;25910;-73
2021/08/25 08:24:12;;;;;;;6.00;3.35;;;;;;;14.81;64.12;101213.37;1785707;78;26907;-72
2021/08/25 08:26:40;;;;;;;9.03;3.58;;;;;;;14.78;63.96;101195.52;1811311;78;26280;-71
2021/08/25 08:29:06;;;;;;;7.10;3.33;;;;;;;14.96;63.76;101199.08;1792295;78;25662;-71
2021/08/25 08:31:32;;;;;;;7.12;3.55;;;;;;;15.04;63.63;101198.67;1778967;78;27334;-72
2021/08/25 08:33:59;;;;;;;8.83;3.92;;;;;;;15.12;63.51;101189.20;1786233;78;25833;-72
2021/08/25 08:36:25;;;;;;;10.40;3.15;;;;;;;15.20;63.47;101184.75;1798456;78;25670;-72
2021/08/25 08:38:52;;;;;;;9.18;3.65;;;;;;;15.31;63.33;101177.41;1798526;78;26457;-71
2021/08/25 08:41:18;;;;;;;11.85;4.12;;;;;;;15.49;63.33;101187.21;1789438;78;25764;-71
2021/08/25 08:43:50;;;;;;;10.28;4.12;;;;;;;15.58;62.98;101171.88;1775953;78;28129;-72
2021/08/25 08:46:20;;;;;;;9.93;3.60;;;;;;;15.59;62.06;101168.22;1786458;78;26640;-72
2021/08/25 08:48:47;;;;;;;11.90;4.12;;;;;;;15.60;61.79;101167.26;1788455;78;25868;-71
2021/08/25 08:51:21;;;;;;;11.25;4.10;;;;;;;15.61;61.66;101156.81;1786647;78;25726;-71
2021/08/25 08:53:48;;;;;;;8.88;4.25;;;;;;;15.69;61.47;101156.38;1806171;77;25810;-71
2021/08/25 08:56:14;;;;;;;6.92;3.50;;;;;;;15.80;61.39;101146.70;1791446;77;28267;-71
2021/08/25 08:58:42;;;;;;;8.28;3.60;;;;;;;15.89;61.28;101138.55;1788389;79;27258;-71
2021/08/25 09:01:29;;;;;;;12.98;4.12;;;;;;;15.98;61.27;101139.37;1803728;77;26221;-70
2021/08/25 09:04:34;;;;;;;6.50;3.52;;;;;;;16.09;60.94;101137.39;1787259;77;25949;-72
2021/08/25 09:07:00;;;;;;;10.25;4.65;;;;;;;16.14;60.54;101136.16;1809208;77;25764;-71
2021/08/25 09:09:26;;;;;;;7.40;3.67;;;;;;;16.18;60.22;101131.44;1787752;78;27374;-71
2021/08/25 09:11:55;;;;;;;9.65;4.42;;;;;;;16.27;60.32;101122.78;1811300;77;25754;-72
2021/08/25 09:14:26;;;;;;;9.95;4.17;;;;;;;16.43;60.44;101126.31;1798253;77;25768;-70
2021/08/25 09:16:52;;;;;;;;;;;;;;;16.58;60.30;101119.11;1783517;78;25771;-72
2021/08/25 09:19:18;;;;;;;7.90;3.55;;;;;;;16.62;59.74;101124.73;1788881;77;25724;-71
2021/08/25 09:21:53;;;;;;;8.95;3.67;;;;;;;16.63;59.79;101124.25;1776278;78;27481;-71
2021/08/25 09:24:26;;;;;;;9.38;4.12;;;;;;;16.69;59.62;101115.78;1770704;78;25863;-71
2021/08/25 09:27:15;;;;;;;10.08;4.47;;;;;;;16.75;58.59;101107.28;1782419;78;25821;-72
2021/08/25 09:29:47;;;;;;;14.15;4.45;;;;;;;16.79;58.97;101103.42;1780146;79;26454;-69
2021/08/25 09:32:25;;;;;;;9.80;5.35;;;;;;;16.87;59.01;101099.76;1778990;78;25816;-71
2021/08/25 09:34:57;;;;;;;12.50;6.22;;;;;;;16.87;59.01;101099.76;1795837;77;27573;-70
2021/08/25 09:37:25;;;;;;;8.53;4.92;;;;;;;16.81;58.69;101095.59;1753838;79;25656;-68
2021/08/25 09:39:54;;;;;;;9.50;4.47;;;;;;;16.83;58.58;101088.73;1757168;79;25811;-71
2021/08/25 09:42:45;;;;;;;12.93;5.60;;;;;;;16.85;58.48;101085.45;1773609;78;26412;-71
2021/08/25 09:45:26;;;;;;;8.40;4.83;;;;;;;16.84;58.04;101079.16;1795095;78;25779;-73
2021/08/25 09:47:57;;;;;;;9.95;4.50;;;;;;;16.86;58.25;101064.17;1802133;77;27384;-72
2021/08/25 09:50:26;;;;;;;15.93;4.80;;;;;;;16.93;58.17;101062.82;1777190;79;30338;-73
2021/08/25 09:52:54;;;;;;;8.05;4.35;;;;;;;16.92;58.04;101047.55;1798187;77;25824;-72
2021/08/25 09:55:34;;;;;;;9.83;3.83;;;;;;;16.89;57.60;101046.38;1788611;79;25764;-72
2021/08/25 09:58:01;;;;;;;15.20;4.97;;;;;;;16.88;57.67;101037.39;1814581;77;25693;-71
2021/08/25 10:00:28;;;;;;;12.73;4.28;;;;;;;16.92;57.75;101033.13;1807485;77;27508;-72
2021/08/25 10:02:55;;;;;;;8.20;4.50;;;;;;;16.99;57.34;101027.23;1777824;79;25752;-70
2021/08/25 10:05:28;;;;;;;7.05;4.12;;;;;;;17.01;57.51;101023.06;1779354;79;25700;-72
2021/08/25 10:07:54;;;;;;;12.47;4.90;;;;;;;17.00;57.25;101028.97;1811674;77;26010;-71
2021/08/25 10:10:20;;;;;;;10.82;4.67;;;;;;;16.95;57.00;101025.69;1802788;77;25768;-72
2021/08/25 10:12:51;;;;;;;9.13;5.20;;;;;;;16.91;56.96;101017.85;1786146;78;29536;-73
2021/08/25 10:15:45;;;;;;;17.15;6.20;;;;;;;16.94;57.14;101014.95;1793459;78;26231;-72
2021/08/25 10:18:37;;;;;;;8.90;4.90;;;;;;;16.98;56.73;101015.14;1788878;78;25839;-73
2021/08/25 10:21:00;;;;;;;9.35;4.90;;;;;;;16.91;56.51;101017.38;1787155;78;26896;-70
2021/08/25 10:23:58;;;;;;;11.88;4.58;;;;;;;16.92;55.90;101003.34;1798817;78;25971;-71
2021/08/25 10:26:26;;;;;;;10.35;4.92;;;;;;;16.97;55.39;100994.44;1788011;78;28067;-72
2021/08/25 10:29:07;;;;;;;13.08;4.58;;;;;;;17.11;56.17;100989.00;1794570;78;25827;-71
2021/08/25 10:31:56;;;;;;;;;;;;;;;17.18;56.04;100983.09;1798024;78;25850;-71
2021/08/25 10:34:27;;;;;;;12.50;5.42;;;;;;;17.25;55.80;100975.91;1781470;78;25917;-71
2021/08/25 10:37:20;;;;;;;10.10;4.80;;;;;;;17.25;55.92;100966.43;1795611;78;25762;-70
2021/08/25 10:39:44;;;;;;;9.75;4.33;;;;;;;17.32;55.71;100969.13;1786326;78;28450;-72
2021/08/25 10:42:10;;;;;;;8.93;4.33;;;;;;;17.39;55.45;100967.26;1790259;78;25779;-70
2021/08/25 10:44:46;;;;;;;9.38;4.85;;;;;;;17.43;54.82;100976.92;1786619;78;25819;-71
2021/08/25 10:47:15;;;;;;;9.48;4.72;;;;;;;17.39;54.63;100963.67;1777376;78;27859;-71
2021/08/25 10:49:47;;;;;;;11.97;4.90;;;;;;;17.47;54.29;100958.61;1788257;78;25707;-72
2021/08/25 10:52:21;;;;;;;8.35;4.33;;;;;;;17.47;54.52;100949.13;1767861;78;27457;-70
2021/08/25 10:54:49;;;;;;;9.50;4.45;;;;;;;17.58;54.68;100947.92;1786891;78;26297;-70
2021/08/25 10:57:19;;;;;;;10.18;4.50;;;;;;;17.73;54.40;100941.98;1794157;78;25716;-70
2021/08/25 10:59:47;;;;;;;9.83;4.53;;;;;;;17.82;54.59;100938.15;1788015;78;26069;-70
2021/08/25 11:02:13;;;;;;;9.05;4.60;;;;;;;17.96;54.38;100929.55;1782010;78;25722;-70
2021/08/25 11:04:39;;;;;;;11.35;5.60;;;;;;;17.98;54.14;100924.88;1786091;78;27483;-70
2021/08/25 11:07:11;;;;;;;8.68;4.35;;;;;;;17.99;54.07;100916.64;1794830;78;25912;-70
2021/08/25 11:09:50;;;;;;;9.15;5.20;;;;;;;18.13;53.73;100918.38;1803006;78;25700;-71
2021/08/25 11:12:22;;;;;;;11.57;4.47;;;;;;;18.16;53.58;100915.45;1797294;78;25733;-70
2021/08/25 11:14:53;;;;;;;18.50;4.72;;;;;;;18.16;52.38;100912.25;1777850;78;25737;-71
2021/08/25 11:17:22;;;;;;;10.98;3.65;;;;;;;18.20;52.14;100907.97;1788051;78;29637;-70
2021/08/25 11:20:03;;;;;;;12.28;5.05;;;;;;;18.25;52.26;100884.05;1803852;77;25733;-71
2021/08/25 11:22:34;;;;;;;12.07;4.55;;;;;;;18.32;52.13;100882.64;1798227;78;25688;-70
2021/08/25 11:25:18;;;;;;;10.65;4.17;;;;;;;18.46;51.61;100882.52;1784207;78;25697;-70
2021/08/25 11:27:48;;;;;;;8.75;4.55;;;;;;;18.50;51.18;100871.32;1787105;78;25732;-71
2021/08/25 11:30:21;;;;;;;9.50;3.77;;;;;;;18.59;51.02;100871.63;1790733;78;29763;-71
2021/08/25 11:33:10;;;;;;;9.13;4.67;;;;;;;18.65;51.45;100861.22;1799196;78;25733;-68